Pavao, Brazil
Current Conditions -  °F | °C
As of 11:00 AM on Thursday 18 Dec 2014 (Local Time) from SBPS Reporting Station
Light Rain Light Rain  
Wind Chill: 75°   Ceiling: 1500
Heat Index: 75°   Visibility: 5mi
Dew Point: 72°   Wind: 10mph
Humidity: 89%   Direction: 10°N
Pressure: 29.94"   Gusts: NA
Location:  17.43°S, 41°W
Report Text: SBPS 181300Z 01009KT 8000 -RA BKN015 BKN020 OVC070 24/22 Q1014 RERA
Loading
Personal Weather Stations






























Interactive Weather Map New forecast layout! Learn more

10-Day Weather Forecast

Advertisements
Track Severe Weather on mobile